Time;durP1;ratioP1;P1;durP2;ratioP2;P2;SDS_P1;SDS_P2;PMS_P1;PMS_P2;Temp;Humidity;BMP_temperature;BMP_pressure;BME280_temperature;BME280_humidity;BME280_pressure;Samples;Min_cycle;Max_cycle;Signal;HPM_P1;HPM_P2
2021/08/08 00:01:42;;;;;;;;;2.00;2.00;;;;;23.23;45.34;100523.00;5036533;28;51108;-60
2021/08/08 00:04:08;;;;;;;;;2.75;1.50;;;;;23.22;45.20;100522.16;5033210;28;52007;-60
2021/08/08 00:06:33;;;;;;;;;3.00;1.25;;;;;23.21;45.84;100525.16;5036590;28;51006;-59
2021/08/08 00:08:58;;;;;;;;;1.75;1.75;;;;;23.19;45.52;100521.81;5034382;28;51180;-59
2021/08/08 00:11:24;;;;;;;;;3.00;3.00;;;;;23.18;45.62;100525.69;5036103;28;51240;-60
2021/08/08 00:13:49;;;;;;;;;3.00;2.00;;;;;23.14;45.48;100524.50;5036123;28;51658;-60
2021/08/08 00:16:15;;;;;;;;;3.25;2.25;;;;;23.12;45.60;100532.19;5034892;28;51009;-59
2021/08/08 00:18:41;;;;;;;;;1.25;1.00;;;;;23.11;45.92;100527.75;5035953;28;51156;-59
2021/08/08 00:21:06;;;;;;;;;3.25;2.00;;;;;;;;5036070;28;51294;-59
2021/08/08 00:23:31;;;;;;;;;2.00;1.33;;;;;23.08;45.48;100531.00;5032601;28;53019;-59
2021/08/08 00:25:57;;;;;;;;;4.25;3.25;;;;;23.06;45.57;100530.44;5035882;28;51169;-60
2021/08/08 00:28:22;;;;;;;;;3.75;2.75;;;;;23.01;45.97;100523.69;5035521;28;51212;-61
2021/08/08 00:30:47;;;;;;;;;1.00;1.00;;;;;23.01;45.63;100523.69;5036371;28;51128;-61
2021/08/08 00:33:13;;;;;;;;;3.25;3.00;;;;;23.00;46.08;100537.75;5034643;28;52227;-61
2021/08/08 00:35:42;;;;;;;;;1.00;1.00;;;;;22.98;45.69;100532.50;5035340;28;51219;-61
2021/08/08 00:38:08;;;;;;;;;5.50;2.25;;;;;22.97;45.56;100532.75;5034880;28;51228;-60
2021/08/08 00:40:33;;;;;;;;;5.00;3.25;;;;;22.96;45.85;100540.19;5035349;28;51134;-60
2021/08/08 00:42:59;;;;;;;;;3.00;2.25;;;;;22.96;45.77;100531.06;5034196;28;51803;-59
2021/08/08 00:45:24;;;;;;;;;2.50;1.25;;;;;22.93;46.07;100535.16;5035679;28;51277;-63
2021/08/08 00:47:49;;;;;;;;;4.50;2.00;;;;;22.93;46.17;100539.84;5035122;28;51183;-62
2021/08/08 00:50:15;;;;;;;;;4.00;3.00;;;;;22.92;46.23;100533.47;5032254;28;51121;-61
2021/08/08 00:52:41;;;;;;;;;3.75;2.50;;;;;22.91;45.73;100544.75;5034670;28;52603;-61
2021/08/08 00:55:07;;;;;;;;;4.25;2.25;;;;;22.91;45.89;100536.47;5034739;28;51100;-61
2021/08/08 00:57:33;;;;;;;;;1.00;1.00;;;;;22.91;45.88;100553.03;5025843;28;51136;-62
2021/08/08 00:59:58;;;;;;;;;2.50;2.50;;;;;22.90;45.98;100545.84;5033662;28;51359;-61
2021/08/08 01:02:24;;;;;;;;;1.25;1.25;;;;;22.89;46.00;100539.47;5035214;28;51680;-61
2021/08/08 01:05:07;;;;;;;;;2.50;2.25;;;;;22.88;45.75;100543.34;5034315;28;51465;-62
2021/08/08 01:07:43;;;;;;;;;2.00;2.00;;;;;22.88;45.66;100548.03;5034075;28;51166;-61
2021/08/08 01:10:09;;;;;;;;;3.00;3.00;;;;;22.87;45.68;100540.81;5034185;28;51046;-61
2021/08/08 01:12:38;;;;;;;;;3.25;2.00;;;;;22.87;45.98;100549.09;5035119;28;51172;-62
2021/08/08 01:15:04;;;;;;;;;4.00;2.00;;;;;22.87;46.40;100547.19;5034655;28;51136;-61
2021/08/08 01:17:30;;;;;;;;;2.00;2.00;;;;;22.86;46.23;100548.28;5033433;28;51151;-62
2021/08/08 01:20:00;;;;;;;;;3.00;2.00;;;;;22.88;45.89;100553.53;5034329;28;51866;-61
2021/08/08 01:22:31;;;;;;;;;1.75;1.75;;;;;22.87;46.33;100549.94;5032797;28;52132;-61
2021/08/08 01:25:01;;;;;;;;;1.75;1.50;;;;;22.88;46.43;100554.38;5034169;28;51388;-61
2021/08/08 01:27:28;;;;;;;;;2.75;2.00;;;;;22.86;46.35;100556.56;5034365;28;51096;-61
2021/08/08 01:29:55;;;;;;;;;2.00;1.75;;;;;22.85;45.99;100557.66;5034854;28;51168;-61
2021/08/08 01:32:24;;;;;;;;;5.00;2.75;;;;;22.85;45.92;100562.34;5033788;28;52026;-62
2021/08/08 01:34:50;;;;;;;;;2.75;1.75;;;;;22.84;46.24;100558.72;5031769;28;51066;-61
2021/08/08 01:37:20;;;;;;;;;3.00;2.00;;;;;22.85;45.80;100563.16;5033941;28;51154;-61
2021/08/08 01:39:50;;;;;;;;;1.00;1.00;;;;;22.85;45.82;100565.94;5035163;28;51205;-61
2021/08/08 01:42:17;;;;;;;;;1.25;1.25;;;;;22.86;46.52;100561.25;5032848;28;54146;-61
2021/08/08 01:44:48;;;;;;;;;2.00;1.75;;;;;22.86;46.10;100561.25;5034585;28;51558;-61
2021/08/08 01:47:16;;;;;;;;;3.25;2.00;;;;;22.84;45.93;100561.50;5034274;28;51288;-61
2021/08/08 01:49:44;;;;;;;;;5.25;2.75;;;;;22.83;46.37;100565.31;5034073;28;51128;-61
2021/08/08 01:52:11;;;;;;;;;2.00;1.75;;;;;22.84;46.52;100563.41;5032968;28;51153;-61
2021/08/08 01:54:37;;;;;;;;;3.00;1.50;;;;;22.83;46.23;100562.56;5034733;28;51153;-61
2021/08/08 01:57:07;;;;;;;;;2.00;2.00;;;;;22.84;46.41;100557.91;5033655;28;51296;-61
2021/08/08 01:59:32;;;;;;;;;2.00;2.00;;;;;22.84;46.02;100555.97;5027889;28;51116;-62
2021/08/08 02:02:11;;;;;;;;;2.00;1.25;;;;;22.83;46.17;100565.31;5034603;28;52510;-61
2021/08/08 02:04:39;;;;;;;;;4.25;1.75;;;;;22.82;46.34;100557.25;5033219;28;51337;-61
2021/08/08 02:07:05;;;;;;;;;5.25;3.00;;;;;22.82;46.46;100568.28;5034213;28;51193;-61
2021/08/08 02:09:30;;;;;;;;;3.00;1.50;;;;;22.80;46.01;100568.53;5033820;28;51153;-62
2021/08/08 02:11:56;;;;;;;;;2.00;2.00;;;;;22.77;46.56;100569.88;5034042;28;51765;-61
2021/08/08 02:14:21;;;;;;;;;2.25;2.25;;;;;22.76;46.52;100573.72;5034512;28;51081;-61
2021/08/08 02:16:46;;;;;;;;;2.75;2.75;;;;;22.74;46.56;100575.06;5033503;28;51053;-62
2021/08/08 02:19:11;;;;;;;;;2.75;2.75;;;;;22.72;46.54;100571.69;5032892;28;51369;-61
2021/08/08 02:21:38;;;;;;;;;2.00;1.25;;;;;22.69;46.33;100577.69;5034425;28;51075;-61
2021/08/08 02:24:03;;;;;;;;;3.25;1.00;;;;;22.67;46.30;100577.94;5032421;28;51275;-62
2021/08/08 02:26:29;;;;;;;;;5.00;3.50;;;;;22.65;46.75;100576.50;5034347;28;51295;-61
2021/08/08 02:28:54;;;;;;;;;1.75;1.75;;;;;22.63;46.37;100575.91;5036686;28;51019;-61
2021/08/08 02:31:19;;;;;;;;;1.00;1.00;;;;;22.63;46.92;100581.44;5036487;28;51192;-61
2021/08/08 02:33:45;;;;;;;;;2.25;2.00;;;;;22.63;46.92;100592.50;5036249;28;51133;-61
2021/08/08 02:36:11;;;;;;;;;1.00;1.00;;;;;22.62;46.83;100582.53;5037238;28;51188;-62
2021/08/08 02:38:37;;;;;;;;;3.00;3.00;;;;;22.62;46.93;100585.28;5036281;28;51143;-62
2021/08/08 02:41:02;;;;;;;;;4.50;1.50;;;;;22.61;46.80;100589.09;5037454;28;51917;-61
2021/08/08 02:43:27;;;;;;;;;1.00;1.00;;;;;22.59;46.70;100591.28;5036328;28;51117;-61
2021/08/08 02:45:53;;;;;;;;;2.75;2.00;;;;;22.56;46.85;100580.72;5025041;28;51118;-61
2021/08/08 02:48:19;;;;;;;;;3.25;1.50;;;;;22.57;46.78;100585.16;5037032;28;51046;-62
2021/08/08 02:50:44;;;;;;;;;3.00;3.00;;;;;22.56;46.31;100597.28;5033885;28;51149;-61
2021/08/08 02:53:09;;;;;;;;;2.00;1.75;;;;;22.54;46.73;100592.00;5037139;28;51015;-61
2021/08/08 02:55:35;;;;;;;;;2.25;1.50;;;;;22.53;46.92;100587.56;5037079;28;51437;-61
2021/08/08 02:58:00;;;;;;;;;3.00;2.25;;;;;22.54;46.94;100591.19;5037348;28;51127;-62
2021/08/08 03:00:26;;;;;;;;;5.00;2.00;;;;;22.53;47.05;100595.03;5035922;28;51773;-59
2021/08/08 03:02:52;;;;;;;;;2.00;2.00;;;;;22.51;46.40;100591.63;5036522;28;51123;-61
2021/08/08 03:05:18;;;;;;;;;3.00;3.00;;;;;22.47;46.35;100605.94;5036811;28;51331;-60
2021/08/08 03:07:43;;;;;;;;;4.00;2.50;;;;;22.47;46.54;100599.56;5035884;28;51315;-60
2021/08/08 03:10:09;;;;;;;;;3.00;1.75;;;;;22.47;46.91;100599.56;5034839;28;52365;-60
2021/08/08 03:12:35;;;;;;;;;3.50;2.50;;;;;22.46;46.75;100601.50;5037295;28;51090;-60
2021/08/08 03:15:00;;;;;;;;;2.50;2.00;;;;;22.47;46.87;100597.66;5037167;28;51172;-60
2021/08/08 03:17:26;;;;;;;;;2.00;2.00;;;;;22.48;46.72;100604.00;5036207;28;51657;-61
2021/08/08 03:19:51;;;;;;;;;1.00;1.00;;;;;22.47;46.94;100602.34;5035661;28;51235;-60
2021/08/08 03:22:17;;;;;;;;;4.00;3.25;;;;;22.46;46.81;100607.00;5036535;28;51073;-60
2021/08/08 03:24:43;;;;;;;;;5.25;3.00;;;;;22.45;47.00;100610.84;5037384;28;51125;-61
2021/08/08 03:27:09;;;;;;;;;5.00;3.75;;;;;22.46;46.79;100606.19;5034463;28;51066;-61
2021/08/08 03:29:35;;;;;;;;;4.00;2.75;;;;;22.45;47.22;100601.75;5035459;28;51148;-60
2021/08/08 03:32:00;;;;;;;;;2.75;2.75;;;;;22.43;46.58;100610.25;5037059;28;51068;-62
2021/08/08 03:34:26;;;;;;;;;2.25;2.25;;;;;22.43;46.88;100613.03;5035038;28;51219;-62
2021/08/08 03:36:51;;;;;;;;;2.75;2.00;;;;;22.41;46.67;100612.44;5037286;28;51184;-61
2021/08/08 03:39:20;;;;;;;;;3.25;2.25;;;;;22.41;47.21;100612.44;5035584;28;51985;-61
2021/08/08 03:41:45;;;;;;;;;3.75;3.00;;;;;22.41;46.83;100615.19;5036594;28;51546;-61
2021/08/08 03:44:10;;;;;;;;;4.00;2.25;;;;;22.40;47.21;100616.25;5036190;28;51137;-61
2021/08/08 03:46:36;;;;;;;;;4.00;2.00;;;;;22.36;46.71;100615.06;5036680;28;51468;-61
2021/08/08 03:49:01;;;;;;;;;5.50;2.00;;;;;22.34;46.68;100611.72;5035746;28;51801;-62
2021/08/08 03:51:26;;;;;;;;;2.50;2.50;;;;;22.29;47.33;100617.09;5036600;28;51189;-61
2021/08/08 03:53:52;;;;;;;;;5.00;2.00;;;;;22.25;47.25;100615.06;5035458;28;51140;-61
2021/08/08 03:56:17;;;;;;;;;4.00;4.00;;;;;22.24;46.71;100618.91;5037134;28;51142;-61
2021/08/08 03:58:43;;;;;;;;;4.25;3.50;;;;;22.21;46.78;100614.72;5034554;28;51165;-61
2021/08/08 04:01:08;;;;;;;;;6.50;3.00;;;;;22.19;46.77;100619.59;5034738;28;51268;-62
2021/08/08 04:03:35;;;;;;;;;2.50;2.50;;;;;22.18;46.91;100615.16;5035956;28;51173;-62
2021/08/08 04:06:01;;;;;;;;;3.25;2.00;;;;;22.16;47.47;100615.41;5036557;28;50979;-61
2021/08/08 04:08:26;;;;;;;;;6.00;4.00;;;;;22.14;47.37;100614.81;5034059;28;50961;-61
2021/08/08 04:10:52;;;;;;;;;4.25;4.00;;;;;22.13;47.49;100613.13;5036245;28;51183;-61
2021/08/08 04:13:17;;;;;;;;;3.50;3.00;;;;;22.13;47.41;100615.91;5036368;28;51604;-61
2021/08/08 04:15:42;;;;;;;;;3.00;2.25;;;;;22.14;46.74;100625.84;5036719;28;50986;-62
2021/08/08 04:18:08;;;;;;;;;4.00;4.00;;;;;22.13;47.49;100621.41;5034587;28;51711;-61
2021/08/08 04:20:33;;;;;;;;;5.00;3.00;;;;;22.14;46.94;100636.03;5035803;28;51081;-60
2021/08/08 04:22:58;;;;;;;;;4.25;3.00;;;;;22.14;47.44;100625.00;5034121;28;51006;-62
2021/08/08 04:25:24;;;;;;;;;4.00;3.75;;;;;22.10;47.44;100640.38;5035378;28;50970;-62
2021/08/08 04:27:49;;;;;;;;;4.00;3.00;;;;;22.09;46.83;100641.41;5035874;28;50996;-62
2021/08/08 04:30:14;;;;;;;;;2.50;2.50;;;;;22.06;47.12;100639.13;5034756;28;51317;-61
2021/08/08 04:32:40;;;;;;;;;2.75;2.00;;;;;22.05;47.25;100645.72;5024528;28;51195;-61
2021/08/08 04:35:05;;;;;;;;;5.50;3.00;;;;;22.02;46.86;100643.44;5034820;28;51098;-61
2021/08/08 04:37:32;;;;;;;;;5.50;2.25;;;;;22.01;47.42;100648.13;5034434;28;51640;-61
2021/08/08 04:39:57;;;;;;;;;3.25;3.25;;;;;21.99;47.26;100643.91;5035544;28;51235;-61
2021/08/08 04:42:22;;;;;;;;;3.25;3.00;;;;;21.96;47.00;100639.69;5034083;28;51172;-61
2021/08/08 04:44:48;;;;;;;;;3.50;3.50;;;;;21.95;47.42;100648.22;5035822;28;51172;-62
2021/08/08 04:47:13;;;;;;;;;3.50;3.50;;;;;21.93;46.96;100644.84;5032092;28;52656;-62
2021/08/08 04:49:38;;;;;;;;;2.25;2.25;;;;;21.89;47.14;100647.25;5035674;28;51193;-61
2021/08/08 04:52:04;;;;;;;;;4.00;4.00;;;;;21.86;46.71;100642.19;5034554;28;51074;-61
2021/08/08 04:54:30;;;;;;;;;2.00;2.00;;;;;21.85;46.91;100644.13;5035464;28;51177;-62
2021/08/08 04:56:56;;;;;;;;;4.25;4.25;;;;;21.86;47.03;100648.56;5035440;28;51954;-61
2021/08/08 04:59:21;;;;;;;;;3.25;3.25;;;;;21.85;46.95;100652.38;5033906;28;51069;-61
2021/08/08 05:01:46;;;;;;;;;6.00;4.75;;;;;21.84;47.18;100658.13;5035223;28;51062;-61
2021/08/08 05:04:12;;;;;;;;;4.00;4.00;;;;;21.84;46.79;100655.38;5035542;28;51129;-62
2021/08/08 05:06:37;;;;;;;;;3.50;3.50;;;;;21.82;47.24;100655.63;5034309;28;55429;-61
2021/08/08 05:09:03;;;;;;;;;4.25;4.00;;;;;21.83;46.94;100648.19;5034337;28;51153;-61
2021/08/08 05:11:29;;;;;;;;;4.25;3.00;;;;;21.83;47.21;100659.22;5035247;28;51107;-61
2021/08/08 05:13:54;;;;;;;;;4.50;2.75;;;;;21.80;47.13;100657.78;5035075;28;51225;-61
2021/08/08 05:16:20;;;;;;;;;3.25;2.25;;;;;21.79;46.99;100653.34;5034500;28;51787;-61
2021/08/08 05:18:45;;;;;;;;;4.50;3.00;;;;;21.79;46.77;100650.59;5034295;28;51252;-62
2021/08/08 05:21:10;;;;;;;;;6.50;3.00;;;;;21.79;46.74;100652.50;5033315;28;51231;-60
2021/08/08 05:23:36;;;;;;;;;3.50;3.50;;;;;21.77;47.08;100649.97;5035297;28;51289;-61
2021/08/08 05:26:03;;;;;;;;;3.50;2.50;;;;;21.76;46.74;100662.06;5035313;28;51135;-62
2021/08/08 05:28:28;;;;;;;;;5.00;4.00;;;;;21.76;46.51;100656.56;5033896;28;51221;-61
2021/08/08 05:30:54;;;;;;;;;6.25;4.00;;;;;21.77;47.08;100651.88;5033107;28;51119;-61
2021/08/08 05:33:19;;;;;;;;;5.25;2.00;;;;;21.76;47.02;100656.56;5035010;28;51334;-61
2021/08/08 05:35:44;;;;;;;;;7.75;5.00;;;;;21.77;47.00;100657.38;5034583;28;51040;-61
2021/08/08 05:38:10;;;;;;;;;5.25;4.75;;;;;21.76;47.17;100652.97;5034255;28;51083;-61
2021/08/08 05:40:35;;;;;;;;;4.75;2.00;;;;;21.77;46.77;100655.47;5033879;28;51223;-62
2021/08/08 05:43:01;;;;;;;;;4.25;4.25;;;;;21.76;47.15;100658.47;5024824;28;51014;-61
2021/08/08 05:45:26;;;;;;;;;2.50;2.00;;;;;21.77;46.98;100663.75;5032744;28;51772;-62
2021/08/08 05:47:52;;;;;;;;;2.25;2.00;;;;;21.75;46.76;100660.38;5033968;28;51552;-62
2021/08/08 05:50:17;;;;;;;;;4.00;3.75;;;;;21.74;47.01;100669.75;5032701;28;51228;-61
2021/08/08 05:52:48;;;;;;;;;2.00;2.00;;;;;21.73;46.53;100662.53;5034551;28;51113;-61
2021/08/08 05:55:13;;;;;;;;;3.00;3.00;;;;;21.74;46.99;100658.72;5034527;28;51144;-61
2021/08/08 05:57:39;;;;;;;;;4.50;3.75;;;;;21.73;46.92;100662.53;5034020;28;51088;-61
2021/08/08 06:00:05;;;;;;;;;2.00;2.00;;;;;21.72;47.01;100671.06;5033069;28;51172;-62
2021/08/08 06:02:30;;;;;;;;;5.00;4.00;;;;;21.70;46.72;100674.06;5035568;28;50958;-61
2021/08/08 06:04:55;;;;;;;;;4.50;2.50;;;;;21.69;47.10;100672.38;5038106;28;51703;-61
2021/08/08 06:07:21;;;;;;;;;4.00;2.75;;;;;21.66;46.78;100670.06;5036991;28;51205;-61
2021/08/08 06:09:46;;;;;;;;;2.00;2.00;;;;;21.63;46.64;100680.72;5036495;28;51434;-61
2021/08/08 06:12:11;;;;;;;;;3.25;2.50;;;;;21.62;47.08;100682.66;5037594;28;51145;-61
2021/08/08 06:14:37;;;;;;;;;4.00;3.00;;;;;21.61;46.83;100676.28;5035528;28;51315;-61
2021/08/08 06:17:02;;;;;;;;;4.25;3.00;;;;;21.61;46.89;100676.28;5036160;28;58529;-62
2021/08/08 06:19:28;;;;;;;;;3.25;2.75;;;;;21.61;47.26;100681.81;5036470;28;51262;-61
2021/08/08 06:21:53;;;;;;;;;2.25;2.25;;;;;21.60;47.18;100679.28;5037082;28;51289;-61
2021/08/08 06:24:19;;;;;;;;;4.00;2.00;;;;;21.58;46.68;100687.78;5036806;28;52112;-62
2021/08/08 06:26:44;;;;;;;;;3.00;2.50;;;;;21.57;46.76;100680.59;5036884;28;51165;-62
2021/08/08 06:29:09;;;;;;;;;7.00;4.25;;;;;21.58;47.07;100689.72;5037137;28;51165;-62
2021/08/08 06:31:36;;;;;;;;;3.75;3.75;;;;;21.57;47.17;100699.03;5037121;28;51200;-62
2021/08/08 06:34:01;;;;;;;;;4.00;3.00;;;;;21.56;47.20;100698.19;5037352;28;51973;-61
2021/08/08 06:36:27;;;;;;;;;4.00;1.75;;;;;21.56;46.76;100694.59;5037353;28;51084;-60
2021/08/08 06:38:53;;;;;;;;;1.00;1.00;;;;;21.57;47.21;100696.28;5034746;28;51431;-59
2021/08/08 06:41:18;;;;;;;;;5.00;3.00;;;;;21.61;47.02;100697.50;5038167;28;51240;-60
2021/08/08 06:43:43;;;;;;;;;4.25;3.00;;;;;21.65;47.16;100706.97;5036376;28;52054;-59
2021/08/08 06:46:09;;;;;;;;;3.00;2.00;;;;;21.68;47.45;100702.94;5037678;28;51231;-59
2021/08/08 06:48:35;;;;;;;;;6.00;4.00;;;;;21.73;47.23;100697.56;5035851;28;51192;-59
2021/08/08 06:51:01;;;;;;;;;3.25;1.75;;;;;21.76;47.64;100695.16;5036049;28;51368;-60
2021/08/08 06:53:27;;;;;;;;;3.00;2.00;;;;;21.81;47.54;100697.22;5035725;28;51818;-59
2021/08/08 06:55:52;;;;;;;;;2.75;2.25;;;;;21.84;47.58;100691.22;5036048;28;54390;-60
2021/08/08 06:58:17;;;;;;;;;4.00;4.00;;;;;21.87;47.23;100694.34;5036360;28;51106;-59
2021/08/08 07:00:43;;;;;;;;;2.00;2.00;;;;;21.90;47.59;100704.09;5037616;28;51283;-60
2021/08/08 07:03:08;;;;;;;;;3.50;2.00;;;;;21.95;47.55;100704.22;5036308;28;53434;-60
2021/08/08 07:05:33;;;;;;;;;3.75;2.00;;;;;21.99;47.25;100715.59;5036220;28;51120;-61
2021/08/08 07:07:59;;;;;;;;;3.00;3.00;;;;;22.03;47.65;100717.66;5037384;28;51093;-61
2021/08/08 07:10:24;;;;;;;;;6.00;3.00;;;;;22.08;47.26;100719.75;5036337;28;51253;-60
2021/08/08 07:12:49;;;;;;;;;4.50;3.00;;;;;22.11;47.09;100717.38;5036277;28;58105;-59
2021/08/08 07:15:15;;;;;;;;;3.00;1.75;;;;;22.13;47.14;100712.44;5035702;28;51195;-59
2021/08/08 07:17:40;;;;;;;;;2.00;2.00;;;;;22.17;47.58;100721.94;5037361;28;51205;-60
2021/08/08 07:20:06;;;;;;;;;2.50;2.00;;;;;22.19;47.42;100718.94;5037240;28;51409;-61
2021/08/08 07:22:32;;;;;;;;;2.75;2.00;;;;;22.24;47.57;100721.00;5035152;28;51818;-61
2021/08/08 07:24:57;;;;;;;;;2.50;2.25;;;;;22.27;47.07;100715.81;5035282;28;51157;-61
2021/08/08 07:27:23;;;;;;;;;2.00;2.00;;;;;22.30;48.42;100734.69;5033892;28;51156;-60
2021/08/08 07:29:48;;;;;;;;;4.00;2.50;;;;;22.33;48.16;100738.88;5033362;28;51347;-60
2021/08/08 07:32:13;;;;;;;;;4.25;1.00;;;;;22.36;48.82;100736.47;5035588;28;51625;-59
2021/08/08 07:34:38;;;;;;;;;2.00;2.00;;;;;22.40;49.21;100740.44;5035357;28;51159;-60
2021/08/08 07:37:04;;;;;;;;;3.25;2.25;;;;;22.44;48.06;100746.34;5034983;28;51283;-60
2021/08/08 07:39:31;;;;;;;;;2.00;2.00;;;;;22.45;48.70;100743.34;5029006;28;51267;-60
2021/08/08 07:41:56;;;;;;;;;4.50;2.75;;;;;22.46;47.94;100745.03;5032588;28;51103;-60
2021/08/08 07:44:22;;;;;;;;;2.00;1.75;;;;;22.47;47.51;100746.69;5033644;28;50999;-55
2021/08/08 07:46:47;;;;;;;;;2.50;2.50;;;;;22.48;47.88;100755.81;5031161;28;51019;-57
2021/08/08 07:49:13;;;;;;;;;2.00;2.00;;;;;22.50;47.09;100758.34;5032760;28;51370;-59
2021/08/08 07:51:38;;;;;;;;;4.00;2.25;;;;;22.51;47.50;100768.28;5033691;28;52398;-56
2021/08/08 07:54:03;;;;;;;;;3.50;3.00;;;;;22.50;46.83;100770.22;5034086;28;51736;-57
2021/08/08 07:56:31;;;;;;;;;4.25;2.50;;;;;22.52;46.72;100768.09;5035665;28;51069;-56
2021/08/08 07:58:56;;;;;;;;;4.50;2.75;;;;;22.54;46.96;100765.09;5034675;28;51327;-57
2021/08/08 08:01:21;;;;;;;;;6.25;3.25;;;;;22.52;46.36;100765.31;5035001;28;51220;-57
2021/08/08 08:03:47;;;;;;;;;5.75;4.00;;;;;22.52;46.53;100767.25;5035449;28;52300;-56
2021/08/08 08:06:12;;;;;;;;;4.25;3.00;;;;;22.53;46.72;100771.69;5036131;28;51047;-55
2021/08/08 08:08:37;;;;;;;;;5.00;3.00;;;;;22.52;46.13;100772.78;5034878;28;51349;-56
2021/08/08 08:11:03;;;;;;;;;3.25;2.00;;;;;22.53;46.25;100782.72;5032672;28;51820;-58
2021/08/08 08:13:28;;;;;;;;;5.25;2.25;;;;;22.52;46.61;100781.88;5029579;28;51005;-58
2021/08/08 08:15:53;;;;;;;;;5.00;5.00;;;;;22.53;46.44;100791.00;5036700;28;51173;-60
2021/08/08 08:18:19;;;;;;;;;3.25;3.25;;;;;22.53;46.02;100788.25;5036009;28;51422;-58
2021/08/08 08:20:44;;;;;;;;;3.50;2.00;;;;;22.54;46.04;100798.22;5034852;28;51135;-59
2021/08/08 08:23:10;;;;;;;;;4.25;4.25;;;;;22.55;45.99;100799.88;5035275;28;51125;-62
2021/08/08 08:25:35;;;;;;;;;3.75;3.75;;;;;22.54;46.17;100795.44;5033245;28;52420;-60
2021/08/08 08:28:01;;;;;;;;;5.00;5.00;;;;;22.54;46.00;100800.97;5028968;28;51215;-58
2021/08/08 08:30:26;;;;;;;;;7.00;4.00;;;;;22.54;45.81;100803.72;5034846;28;52078;-58
2021/08/08 08:32:52;;;;;;;;;3.50;3.00;;;;;22.53;46.05;100807.56;5035908;28;50994;-57
2021/08/08 08:35:17;;;;;;;;;4.00;2.25;;;;;22.55;45.83;100813.69;5033138;28;51198;-60
2021/08/08 08:37:42;;;;;;;;;3.25;3.25;;;;;22.55;45.93;100811.78;5033455;28;51413;-58
2021/08/08 08:40:08;;;;;;;;;2.25;2.25;;;;;22.55;46.40;100813.69;5034994;28;50980;-59
2021/08/08 08:42:39;;;;;;;;;3.00;2.00;;;;;22.56;45.89;100818.13;5034612;28;51068;-57
2021/08/08 08:45:06;;;;;;;;;7.25;5.00;;;;;22.58;46.09;100824.25;5033052;28;51178;-58
2021/08/08 08:47:31;;;;;;;;;6.00;4.00;;;;;22.59;46.16;100817.66;5033929;28;51077;-57
2021/08/08 08:49:59;;;;;;;;;6.25;3.25;;;;;22.59;46.03;100809.38;5027477;28;51059;-59
2021/08/08 08:52:27;;;;;;;;;4.00;3.00;;;;;22.60;45.72;100822.94;5028633;28;51535;-61
2021/08/08 08:54:53;;;;;;;;;4.25;4.00;;;;;22.62;45.86;100811.69;5029726;28;51175;-58
2021/08/08 08:57:19;;;;;;;;;5.00;3.00;;;;;22.62;45.22;100822.72;5033816;28;51158;-59
2021/08/08 08:59:46;;;;;;;;;6.00;3.00;;;;;22.63;45.70;100816.13;5034585;28;51230;-59
2021/08/08 09:02:12;;;;;;;;;5.50;3.75;;;;;22.63;45.38;100816.97;5034665;28;51428;-60
2021/08/08 09:04:38;;;;;;;;;2.25;2.25;;;;;22.65;45.60;100814.78;5033983;28;51227;-62
2021/08/08 09:07:04;;;;;;;;;3.50;3.00;;;;;22.67;45.49;100822.84;5034121;28;50942;-60
2021/08/08 09:09:31;;;;;;;;;4.00;4.00;;;;;22.68;45.24;100827.28;5033936;28;51670;-60
2021/08/08 09:11:57;;;;;;;;;5.75;4.25;;;;;22.71;45.08;100826.78;5034462;28;51309;-59
2021/08/08 09:14:23;;;;;;;;;4.50;3.50;;;;;22.71;45.39;100830.38;5025317;28;51189;-56
2021/08/08 09:16:54;;;;;;;;;5.00;4.00;;;;;22.73;44.91;100832.94;5033416;28;51159;-58
2021/08/08 09:19:21;;;;;;;;;3.25;3.25;;;;;22.73;45.02;100832.94;5031402;28;52019;-58
2021/08/08 09:21:47;;;;;;;;;5.25;4.00;;;;;22.74;45.47;100837.38;5034683;28;51051;-57
2021/08/08 09:24:32;;;;;;;;;6.75;3.25;;;;;22.73;45.09;100833.78;5030997;28;51328;-59
2021/08/08 09:27:04;;;;;;;;;4.75;2.00;;;;;22.73;45.15;100831.03;5026234;28;51308;-59
2021/08/08 09:29:30;;;;;;;;;3.75;1.75;;;;;22.73;44.78;100832.94;5031787;28;52006;-58
2021/08/08 09:31:56;;;;;;;;;2.75;2.75;;;;;22.73;44.43;100833.78;5034348;28;51178;-55
2021/08/08 09:34:25;;;;;;;;;4.00;3.00;;;;;22.75;44.07;100825.25;5034339;28;51161;-58
2021/08/08 09:36:51;;;;;;;;;5.00;2.50;;;;;22.76;43.96;100837.97;5034559;28;50941;-58
2021/08/08 09:39:33;;;;;;;;;5.50;3.00;;;;;22.80;44.38;100835.56;5024654;28;51024;-58
2021/08/08 09:42:07;;;;;;;;;2.75;2.50;;;;;22.79;43.94;100843.03;5015029;28;51435;-58
2021/08/08 09:44:33;;;;;;;;;6.50;4.25;;;;;22.81;43.93;100843.63;5015488;28;51058;-58
2021/08/08 09:46:58;;;;;;;;;5.25;4.00;;;;;22.83;43.63;100837.88;5015606;28;50984;-58
2021/08/08 09:49:24;;;;;;;;;2.25;2.25;;;;;22.83;43.96;100844.25;5014755;28;51014;-58
2021/08/08 09:51:52;;;;;;;;;2.75;2.75;;;;;22.84;43.15;100845.97;5027602;28;51391;-58
2021/08/08 09:54:19;;;;;;;;;2.00;2.00;;;;;22.85;42.83;100846.78;5034871;28;51093;-58
2021/08/08 09:56:44;;;;;;;;;5.00;5.00;;;;;22.86;42.86;100842.94;5035226;28;50986;-58
2021/08/08 09:59:09;;;;;;;;;4.00;2.50;;;;;22.86;43.26;100842.94;5043010;28;51808;-57
2021/08/08 10:01:39;;;;;;;;;3.75;3.00;;;;;22.86;42.52;100846.56;5034273;28;51369;-58
2021/08/08 10:04:05;;;;;;;;;7.00;5.25;;;;;22.87;42.74;100841.88;5034205;28;51036;-57
2021/08/08 10:06:31;;;;;;;;;3.75;2.50;;;;;22.88;42.69;100841.63;5034944;28;51233;-59
2021/08/08 10:08:57;;;;;;;;;3.25;3.00;;;;;22.90;42.30;100850.50;5033972;28;51084;-59
2021/08/08 10:11:23;;;;;;;;;2.75;2.75;;;;;22.91;42.66;100854.13;5014891;28;51140;-58
2021/08/08 10:13:56;;;;;;;;;5.00;3.00;;;;;22.91;42.30;100854.94;5021315;28;51174;-58
2021/08/08 10:16:22;;;;;;;;;4.50;3.00;;;;;22.91;42.33;100849.44;5034456;28;51038;-58
2021/08/08 10:18:54;;;;;;;;;3.75;2.75;;;;;22.91;42.25;100854.94;5034361;28;51923;-58
2021/08/08 10:21:21;;;;;;;;;5.50;4.00;;;;;22.91;42.34;100859.63;5034768;28;51192;-59
2021/08/08 10:23:52;;;;;;;;;3.00;3.00;;;;;22.91;42.19;100856.88;5034510;28;51073;-59
2021/08/08 10:26:18;;;;;;;;;5.00;3.75;;;;;22.91;42.10;100866.00;5029324;28;51050;-58
2021/08/08 10:28:44;;;;;;;;;3.25;2.25;;;;;22.90;42.26;100858.78;5034428;28;52590;-58
2021/08/08 10:31:17;;;;;;;;;4.50;3.00;;;;;22.91;42.15;100849.44;5034371;28;51135;-58
2021/08/08 10:33:43;;;;;;;;;4.25;3.00;;;;;22.92;42.25;100864.06;5034434;28;51121;-57
2021/08/08 10:36:16;;;;;;;;;4.00;2.50;;;;;22.93;42.06;100868.56;5034306;28;51193;-58
2021/08/08 10:38:42;;;;;;;;;4.00;2.75;;;;;22.93;41.43;100865.78;5031665;28;51900;-57
2021/08/08 10:41:10;;;;;;;;;6.50;3.25;;;;;22.92;41.80;100859.41;5033283;28;51130;-58
2021/08/08 10:43:36;;;;;;;;;3.00;2.50;;;;;22.93;41.81;100866.63;5033103;28;51174;-58
2021/08/08 10:46:06;;;;;;;;;6.00;2.00;;;;;22.93;41.21;100869.41;5031782;28;51181;-57
2021/08/08 10:48:35;;;;;;;;;3.00;3.00;;;;;22.91;41.82;100867.94;5032829;28;51406;-55
2021/08/08 10:51:02;;;;;;;;;3.75;3.50;;;;;22.91;41.66;100867.94;5034023;28;51422;-59
2021/08/08 10:53:29;;;;;;;;;2.00;2.00;;;;;22.92;42.07;100866.84;5030603;28;51181;-58
2021/08/08 10:56:07;;;;;;;;;4.75;3.50;;;;;22.91;42.75;100865.16;5033607;28;51274;-58
2021/08/08 10:58:35;;;;;;;;;3.50;1.50;;;;;22.93;42.65;100871.31;5033022;28;52116;-58
2021/08/08 11:01:01;;;;;;;;;2.50;2.00;;;;;22.93;42.22;100865.78;5034360;28;51165;-58
2021/08/08 11:03:26;;;;;;;;;3.25;3.25;;;;;22.95;42.64;100861.69;5032929;28;50920;-58
2021/08/08 11:05:51;;;;;;;;;2.25;2.25;;;;;22.98;42.31;100854.84;5035581;28;51504;-58
2021/08/08 11:08:21;;;;;;;;;5.50;4.00;;;;;22.99;42.69;100848.25;5034581;28;52078;-58
2021/08/08 11:10:46;;;;;;;;;4.00;2.00;;;;;23.00;42.43;100842.47;5034530;28;51781;-58
2021/08/08 11:13:26;;;;;;;;;5.25;4.75;;;;;23.01;41.92;100841.38;5035097;28;51296;-59
2021/08/08 11:15:52;;;;;;;;;3.00;3.00;;;;;23.02;41.58;100845.00;5034317;28;51174;-58
2021/08/08 11:18:18;;;;;;;;;5.00;3.25;;;;;23.03;41.51;100839.25;5031739;28;52463;-59
2021/08/08 11:20:43;;;;;;;;;3.50;3.50;;;;;23.05;41.61;100839.00;5030867;28;51229;-58
2021/08/08 11:23:09;;;;;;;;;3.00;3.00;;;;;23.07;41.31;100841.53;5033310;28;51240;-57